sensor_id;sensor_type;location;lat;lon;timestamp;pressure;altitude;pressure_sealevel;temperature;humidity
21824;BME280;11074;48.596;9.238;2024-01-15T00:01:05;97241.63;;;-0.29;77.56
21824;BME280;11074;48.596;9.238;2024-01-15T00:03:30;97234.16;;;-0.19;76.76
21824;BME280;11074;48.596;9.238;2024-01-15T00:05:55;97241.59;;;-0.16;76.34
21824;BME280;11074;48.596;9.238;2024-01-15T00:08:21;97229.91;;;-0.20;76.49
21824;BME280;11074;48.596;9.238;2024-01-15T00:10:46;97225.00;;;-0.10;76.82
21824;BME280;11074;48.596;9.238;2024-01-15T00:13:11;97216.53;;;-0.12;76.50
21824;BME280;11074;48.596;9.238;2024-01-15T00:15:36;97222.38;;;-0.10;76.35
21824;BME280;11074;48.596;9.238;2024-01-15T00:18:02;97221.56;;;-0.04;76.22
21824;BME280;11074;48.596;9.238;2024-01-15T00:20:27;97212.03;;;0.02;75.97
21824;BME280;11074;48.596;9.238;2024-01-15T00:22:52;97217.72;;;-0.08;75.76
21824;BME280;11074;48.596;9.238;2024-01-15T00:25:18;97215.25;;;0.04;76.26
21824;BME280;11074;48.596;9.238;2024-01-15T00:27:43;97217.91;;;-0.03;76.33
21824;BME280;11074;48.596;9.238;2024-01-15T00:30:09;97222.31;;;0.10;75.58
21824;BME280;11074;48.596;9.238;2024-01-15T00:32:34;97222.50;;;0.15;75.54
21824;BME280;11074;48.596;9.238;2024-01-15T00:34:59;97222.84;;;0.19;74.92
21824;BME280;11074;48.596;9.238;2024-01-15T00:37:25;97223.84;;;0.24;75.22
21824;BME280;11074;48.596;9.238;2024-01-15T00:39:50;97215.59;;;0.21;75.33
21824;BME280;11074;48.596;9.238;2024-01-15T00:42:15;97216.41;;;0.21;75.38
21824;BME280;11074;48.596;9.238;2024-01-15T00:44:42;97213.13;;;0.26;75.39
21824;BME280;11074;48.596;9.238;2024-01-15T00:47:07;97199.59;;;0.22;75.80
21824;BME280;11074;48.596;9.238;2024-01-15T00:49:33;97195.31;;;0.28;75.53
21824;BME280;11074;48.596;9.238;2024-01-15T00:51:58;97209.69;;;0.25;75.52
21824;BME280;11074;48.596;9.238;2024-01-15T00:54:23;97201.41;;;0.22;75.57
21824;BME280;11074;48.596;9.238;2024-01-15T00:56:48;97202.47;;;0.14;75.60
21824;BME280;11074;48.596;9.238;2024-01-15T00:59:14;97202.22;;;0.22;75.83
21824;BME280;11074;48.596;9.238;2024-01-15T01:01:43;97198.19;;;0.20;75.68
21824;BME280;11074;48.596;9.238;2024-01-15T01:04:11;97198.78;;;0.22;75.51
21824;BME280;11074;48.596;9.238;2024-01-15T01:06:36;97198.59;;;0.23;75.67
21824;BME280;11074;48.596;9.238;2024-01-15T01:09:02;97205.28;;;0.19;75.72
21824;BME280;11074;48.596;9.238;2024-01-15T01:11:27;97206.69;;;0.22;75.52
21824;BME280;11074;48.596;9.238;2024-01-15T01:13:52;97211.38;;;0.13;75.87
21824;BME280;11074;48.596;9.238;2024-01-15T01:16:17;97213.94;;;0.26;75.49
21824;BME280;11074;48.596;9.238;2024-01-15T01:18:43;97211.75;;;0.23;75.72
21824;BME280;11074;48.596;9.238;2024-01-15T01:21:08;97208.28;;;0.29;75.36
21824;BME280;11074;48.596;9.238;2024-01-15T01:23:33;97210.28;;;0.27;75.59
21824;BME280;11074;48.596;9.238;2024-01-15T01:25:59;97205.44;;;0.31;75.12
21824;BME280;11074;48.596;9.238;2024-01-15T01:28:24;97210.25;;;0.34;75.40
21824;BME280;11074;48.596;9.238;2024-01-15T01:30:49;97213.13;;;0.26;75.24
21824;BME280;11074;48.596;9.238;2024-01-15T01:33:15;97209.44;;;0.33;75.34
21824;BME280;11074;48.596;9.238;2024-01-15T01:35:40;97203.13;;;0.41;75.11
21824;BME280;11074;48.596;9.238;2024-01-15T01:38:05;97199.69;;;0.40;75.12
21824;BME280;11074;48.596;9.238;2024-01-15T01:40:31;97198.53;;;0.30;75.39
21824;BME280;11074;48.596;9.238;2024-01-15T01:42:56;97195.25;;;0.41;74.94
21824;BME280;11074;48.596;9.238;2024-01-15T01:45:21;97206.22;;;0.31;75.44
21824;BME280;11074;48.596;9.238;2024-01-15T01:47:47;97205.59;;;0.36;75.66
21824;BME280;11074;48.596;9.238;2024-01-15T01:50:13;97198.97;;;0.27;75.99
21824;BME280;11074;48.596;9.238;2024-01-15T01:52:39;97198.63;;;0.17;75.93
21824;BME280;11074;48.596;9.238;2024-01-15T01:55:06;97194.34;;;0.22;76.06
21824;BME280;11074;48.596;9.238;2024-01-15T01:57:32;97193.34;;;0.23;76.07
21824;BME280;11074;48.596;9.238;2024-01-15T02:00:02;97203.63;;;0.25;75.76
21824;BME280;11074;48.596;9.238;2024-01-15T02:02:28;97200.25;;;0.11;76.44
21824;BME280;11074;48.596;9.238;2024-01-15T02:04:54;97195.00;;;0.18;76.40
21824;BME280;11074;48.596;9.238;2024-01-15T02:07:20;97190.31;;;0.20;76.40
21824;BME280;11074;48.596;9.238;2024-01-15T02:09:45;97195.13;;;0.29;76.04
21824;BME280;11074;48.596;9.238;2024-01-15T02:12:11;97195.38;;;0.21;76.33
21824;BME280;11074;48.596;9.238;2024-01-15T02:14:36;97192.13;;;0.19;76.48
21824;BME280;11074;48.596;9.238;2024-01-15T02:17:02;97182.72;;;0.05;77.10
21824;BME280;11074;48.596;9.238;2024-01-15T02:19:27;97193.78;;;0.14;77.19
21824;BME280;11074;48.596;9.238;2024-01-15T02:21:52;97187.13;;;0.11;77.07
21824;BME280;11074;48.596;9.238;2024-01-15T02:24:18;97186.06;;;0.19;76.55
21824;BME280;11074;48.596;9.238;2024-01-15T02:26:43;97181.84;;;0.18;77.28
21824;BME280;11074;48.596;9.238;2024-01-15T02:29:09;97185.28;;;0.18;76.54
21824;BME280;11074;48.596;9.238;2024-01-15T02:31:36;97179.81;;;0.20;77.29
21824;BME280;11074;48.596;9.238;2024-01-15T02:34:01;97180.81;;;0.19;77.34
21824;BME280;11074;48.596;9.238;2024-01-15T02:36:27;97175.94;;;0.22;77.57
21824;BME280;11074;48.596;9.238;2024-01-15T02:38:52;97180.38;;;0.28;76.78
21824;BME280;11074;48.596;9.238;2024-01-15T02:41:17;97182.25;;;0.15;77.31
21824;BME280;11074;48.596;9.238;2024-01-15T02:43:43;97180.03;;;0.18;77.68
21824;BME280;11074;48.596;9.238;2024-01-15T02:46:08;97175.56;;;0.19;77.40
21824;BME280;11074;48.596;9.238;2024-01-15T02:48:33;97185.22;;;0.25;76.98
21824;BME280;11074;48.596;9.238;2024-01-15T02:51:00;97184.06;;;0.21;78.00
21824;BME280;11074;48.596;9.238;2024-01-15T02:53:26;97169.88;;;0.22;77.92
21824;BME280;11074;48.596;9.238;2024-01-15T02:55:51;97172.69;;;0.27;77.44
21824;BME280;11074;48.596;9.238;2024-01-15T02:58:17;97175.69;;;0.30;77.15
21824;BME280;11074;48.596;9.238;2024-01-15T03:00:42;97179.09;;;0.37;77.65
21824;BME280;11074;48.596;9.238;2024-01-15T03:03:07;97168.84;;;0.29;78.14
21824;BME280;11074;48.596;9.238;2024-01-15T03:05:33;97176.53;;;0.31;78.65
21824;BME280;11074;48.596;9.238;2024-01-15T03:07:58;97177.09;;;0.33;77.69
21824;BME280;11074;48.596;9.238;2024-01-15T03:10:24;97167.81;;;0.30;78.28
21824;BME280;11074;48.596;9.238;2024-01-15T03:12:49;97173.06;;;0.37;78.44
21824;BME280;11074;48.596;9.238;2024-01-15T03:15:14;97163.78;;;0.28;78.21
21824;BME280;11074;48.596;9.238;2024-01-15T03:17:41;97167.00;;;0.30;78.56
21824;BME280;11074;48.596;9.238;2024-01-15T03:20:07;97167.41;;;0.33;78.69
21824;BME280;11074;48.596;9.238;2024-01-15T03:22:32;97171.50;;;0.23;78.62
21824;BME280;11074;48.596;9.238;2024-01-15T03:24:58;97170.84;;;0.34;78.62
21824;BME280;11074;48.596;9.238;2024-01-15T03:27:23;97158.94;;;0.31;78.87
21824;BME280;11074;48.596;9.238;2024-01-15T03:29:48;97151.63;;;0.33;78.46
21824;BME280;11074;48.596;9.238;2024-01-15T03:32:14;97157.13;;;0.32;78.02
21824;BME280;11074;48.596;9.238;2024-01-15T03:34:41;97156.50;;;0.30;78.67
21824;BME280;11074;48.596;9.238;2024-01-15T03:37:06;97140.97;;;0.28;78.35
21824;BME280;11074;48.596;9.238;2024-01-15T03:39:31;97141.78;;;0.29;78.79
21824;BME280;11074;48.596;9.238;2024-01-15T03:41:56;97146.16;;;0.35;78.43
21824;BME280;11074;48.596;9.238;2024-01-15T03:44:22;97151.63;;;0.33;79.20
21824;BME280;11074;48.596;9.238;2024-01-15T03:46:47;97152.78;;;0.44;78.67
21824;BME280;11074;48.596;9.238;2024-01-15T03:49:13;97147.19;;;0.34;78.77
21824;BME280;11074;48.596;9.238;2024-01-15T03:51:38;97152.38;;;0.40;78.86
21824;BME280;11074;48.596;9.238;2024-01-15T03:54:03;97145.97;;;0.36;78.74
21824;BME280;11074;48.596;9.238;2024-01-15T03:56:29;97151.59;;;0.40;79.00
21824;BME280;11074;48.596;9.238;2024-01-15T03:58:54;97138.06;;;0.36;79.10
21824;BME280;11074;48.596;9.238;2024-01-15T04:01:19;97140.06;;;0.41;78.94
21824;BME280;11074;48.596;9.238;2024-01-15T04:03:44;97139.63;;;0.44;78.44
21824;BME280;11074;48.596;9.238;2024-01-15T04:06:10;97137.84;;;0.38;79.49
21824;BME280;11074;48.596;9.238;2024-01-15T04:08:35;97139.47;;;0.39;79.43
21824;BME280;11074;48.596;9.238;2024-01-15T04:11:00;97138.19;;;0.48;79.22
21824;BME280;11074;48.596;9.238;2024-01-15T04:13:27;97136.31;;;0.55;79.67
21824;BME280;11074;48.596;9.238;2024-01-15T04:15:52;97131.22;;;0.60;78.89
21824;BME280;11074;48.596;9.238;2024-01-15T04:18:18;97134.38;;;0.69;79.21
21824;BME280;11074;48.596;9.238;2024-01-15T04:20:43;97126.66;;;0.74;78.45
21824;BME280;11074;48.596;9.238;2024-01-15T04:23:08;97123.22;;;0.73;78.54
21824;BME280;11074;48.596;9.238;2024-01-15T04:25:34;97128.91;;;0.70;79.15
21824;BME280;11074;48.596;9.238;2024-01-15T04:27:59;97122.47;;;0.66;79.13
21824;BME280;11074;48.596;9.238;2024-01-15T04:30:25;97122.06;;;0.69;79.27
21824;BME280;11074;48.596;9.238;2024-01-15T04:32:50;97124.69;;;0.69;79.42
21824;BME280;11074;48.596;9.238;2024-01-15T04:35:15;97134.31;;;0.75;79.60
21824;BME280;11074;48.596;9.238;2024-01-15T04:37:40;97115.72;;;0.77;79.25
21824;BME280;11074;48.596;9.238;2024-01-15T04:40:06;97118.78;;;0.74;79.50
21824;BME280;11074;48.596;9.238;2024-01-15T04:42:32;97128.06;;;0.76;79.08
21824;BME280;11074;48.596;9.238;2024-01-15T04:44:57;97111.41;;;0.82;79.22
21824;BME280;11074;48.596;9.238;2024-01-15T04:47:22;97127.03;;;0.77;79.19
21824;BME280;11074;48.596;9.238;2024-01-15T04:49:48;97115.72;;;0.77;79.29
21824;BME280;11074;48.596;9.238;2024-01-15T04:52:14;97129.56;;;0.66;80.75
21824;BME280;11074;48.596;9.238;2024-01-15T04:54:39;97134.75;;;0.72;80.68
21824;BME280;11074;48.596;9.238;2024-01-15T04:57:05;97132.13;;;0.72;80.50
21824;BME280;11074;48.596;9.238;2024-01-15T04:59:31;97138.56;;;0.76;80.41
21824;BME280;11074;48.596;9.238;2024-01-15T05:01:56;97136.22;;;0.68;80.40
21824;BME280;11074;48.596;9.238;2024-01-15T05:04:21;97133.78;;;0.67;80.63
21824;BME280;11074;48.596;9.238;2024-01-15T05:06:47;97135.13;;;0.76;80.84
21824;BME280;11074;48.596;9.238;2024-01-15T05:09:12;97130.25;;;0.79;80.82
21824;BME280;11074;48.596;9.238;2024-01-15T05:11:38;97123.19;;;0.80;80.07
21824;BME280;11074;48.596;9.238;2024-01-15T05:14:04;97131.09;;;0.73;80.65
21824;BME280;11074;48.596;9.238;2024-01-15T05:16:29;97129.72;;;0.71;80.77
21824;BME280;11074;48.596;9.238;2024-01-15T05:18:55;97125.63;;;0.75;80.25
21824;BME280;11074;48.596;9.238;2024-01-15T05:21:20;97123.19;;;0.80;80.04
21824;BME280;11074;48.596;9.238;2024-01-15T05:23:45;97121.41;;;0.74;80.60
21824;BME280;11074;48.596;9.238;2024-01-15T05:26:10;97114.31;;;0.74;80.77
21824;BME280;11074;48.596;9.238;2024-01-15T05:28:36;97122.56;;;0.78;80.04
21824;BME280;11074;48.596;9.238;2024-01-15T05:31:01;97126.97;;;0.84;80.13
21824;BME280;11074;48.596;9.238;2024-01-15T05:33:27;97133.25;;;0.83;80.40
21824;BME280;11074;48.596;9.238;2024-01-15T05:35:52;97125.00;;;0.79;80.43
21824;BME280;11074;48.596;9.238;2024-01-15T05:38:18;97120.09;;;0.83;80.00
21824;BME280;11074;48.596;9.238;2024-01-15T05:40:44;97131.41;;;0.83;80.60
21824;BME280;11074;48.596;9.238;2024-01-15T05:43:09;97136.13;;;0.75;80.58
21824;BME280;11074;48.596;9.238;2024-01-15T05:45:35;97133.63;;;0.86;80.45
21824;BME280;11074;48.596;9.238;2024-01-15T05:48:03;97124.09;;;0.85;80.61
21824;BME280;11074;48.596;9.238;2024-01-15T05:50:29;97122.00;;;0.94;80.23
21824;BME280;11074;48.596;9.238;2024-01-15T05:52:54;97122.00;;;0.94;80.33
21824;BME280;11074;48.596;9.238;2024-01-15T05:55:19;97118.22;;;0.90;80.64
21824;BME280;11074;48.596;9.238;2024-01-15T05:57:45;97123.09;;;0.86;81.49
21824;BME280;11074;48.596;9.238;2024-01-15T06:00:10;97117.56;;;0.94;81.36
21824;BME280;11074;48.596;9.238;2024-01-15T06:02:39;97128.94;;;0.88;81.55
21824;BME280;11074;48.596;9.238;2024-01-15T06:05:05;97123.09;;;0.86;81.54
21824;BME280;11074;48.596;9.238;2024-01-15T06:07:31;97121.84;;;0.89;81.73
21824;BME280;11074;48.596;9.238;2024-01-15T06:09:57;97108.72;;;0.89;82.17
21824;BME280;11074;48.596;9.238;2024-01-15T06:12:22;97111.78;;;0.86;82.39
21824;BME280;11074;48.596;9.238;2024-01-15T06:14:47;97110.59;;;0.82;82.13
21824;BME280;11074;48.596;9.238;2024-01-15T06:17:13;97115.22;;;0.86;82.26
21824;BME280;11074;48.596;9.238;2024-01-15T06:19:38;97113.59;;;0.85;82.53
21824;BME280;11074;48.596;9.238;2024-01-15T06:22:03;97108.94;;;0.87;82.77
21824;BME280;11074;48.596;9.238;2024-01-15T06:24:28;97099.00;;;0.89;82.66
21824;BME280;11074;48.596;9.238;2024-01-15T06:26:54;97100.38;;;0.92;81.67
21824;BME280;11074;48.596;9.238;2024-01-15T06:29:19;97098.56;;;0.92;81.75
21824;BME280;11074;48.596;9.238;2024-01-15T06:31:44;97092.19;;;0.82;82.08
21824;BME280;11074;48.596;9.238;2024-01-15T06:34:09;97093.31;;;0.92;81.33
21824;BME280;11074;48.596;9.238;2024-01-15T06:36:35;97087.28;;;0.85;81.93
21824;BME280;11074;48.596;9.238;2024-01-15T06:39:00;97092.53;;;0.85;81.51
21824;BME280;11074;48.596;9.238;2024-01-15T06:41:25;97085.81;;;0.71;83.42
21824;BME280;11074;48.596;9.238;2024-01-15T06:43:51;97077.81;;;0.59;82.75
21824;BME280;11074;48.596;9.238;2024-01-15T06:46:22;97082.03;;;0.85;83.49
21824;BME280;11074;48.596;9.238;2024-01-15T06:48:48;97084.31;;;0.82;82.68
21824;BME280;11074;48.596;9.238;2024-01-15T06:51:15;97075.97;;;0.85;83.80
21824;BME280;11074;48.596;9.238;2024-01-15T06:53:40;97066.47;;;0.84;82.17
21824;BME280;11074;48.596;9.238;2024-01-15T06:56:05;97063.19;;;0.88;82.64
21824;BME280;11074;48.596;9.238;2024-01-15T06:58:31;97062.25;;;1.01;81.16
21824;BME280;11074;48.596;9.238;2024-01-15T07:00:56;97059.69;;;0.94;79.94
21824;BME280;11074;48.596;9.238;2024-01-15T07:03:22;97054.81;;;0.98;80.30
21824;BME280;11074;48.596;9.238;2024-01-15T07:05:47;97048.31;;;1.00;79.75
21824;BME280;11074;48.596;9.238;2024-01-15T07:08:12;97063.56;;;0.92;80.27
21824;BME280;11074;48.596;9.238;2024-01-15T07:10:38;97059.50;;;0.96;80.04
21824;BME280;11074;48.596;9.238;2024-01-15T07:13:03;97060.50;;;0.95;79.29
21824;BME280;11074;48.596;9.238;2024-01-15T07:15:30;97058.72;;;1.07;78.55
21824;BME280;11074;48.596;9.238;2024-01-15T07:17:55;97049.59;;;1.09;78.94
21824;BME280;11074;48.596;9.238;2024-01-15T07:20:21;97056.34;;;1.05;78.96
21824;BME280;11074;48.596;9.238;2024-01-15T07:22:46;97054.28;;;1.07;78.07
21824;BME280;11074;48.596;9.238;2024-01-15T07:25:11;97061.75;;;1.10;78.26
21824;BME280;11074;48.596;9.238;2024-01-15T07:27:38;97052.38;;;1.14;78.39
21824;BME280;11074;48.596;9.238;2024-01-15T07:30:03;97057.50;;;1.09;78.42
21824;BME280;11074;48.596;9.238;2024-01-15T07:32:30;97061.44;;;1.18;78.08
21824;BME280;11074;48.596;9.238;2024-01-15T07:34:56;97058.69;;;1.13;77.91
21824;BME280;11074;48.596;9.238;2024-01-15T07:37:22;97068.47;;;1.06;78.34
21824;BME280;11074;48.596;9.238;2024-01-15T07:39:48;97068.81;;;1.10;78.46
21824;BME280;11074;48.596;9.238;2024-01-15T07:42:13;97053.41;;;1.13;77.55
21824;BME280;11074;48.596;9.238;2024-01-15T07:44:39;97064.59;;;1.09;77.69
21824;BME280;11074;48.596;9.238;2024-01-15T07:47:04;97066.13;;;1.16;76.89
21824;BME280;11074;48.596;9.238;2024-01-15T07:49:30;97069.78;;;1.15;77.54
21824;BME280;11074;48.596;9.238;2024-01-15T07:51:55;97060.72;;;1.11;77.17
21824;BME280;11074;48.596;9.238;2024-01-15T07:54:20;97058.25;;;1.16;76.56
21824;BME280;11074;48.596;9.238;2024-01-15T07:56:55;97049.69;;;1.21;75.96
21824;BME280;11074;48.596;9.238;2024-01-15T07:59:21;97051.72;;;1.19;75.71
21824;BME280;11074;48.596;9.238;2024-01-15T08:01:46;97053.69;;;1.23;75.73
21824;BME280;11074;48.596;9.238;2024-01-15T08:04:12;97056.91;;;1.26;75.60
21824;BME280;11074;48.596;9.238;2024-01-15T08:06:38;97054.50;;;1.24;74.79
21824;BME280;11074;48.596;9.238;2024-01-15T08:09:03;97060.47;;;1.31;74.46
21824;BME280;11074;48.596;9.238;2024-01-15T08:11:29;97055.00;;;1.33;74.60
21824;BME280;11074;48.596;9.238;2024-01-15T08:13:55;97057.13;;;1.24;74.68
21824;BME280;11074;48.596;9.238;2024-01-15T08:16:20;97058.75;;;1.25;74.56
21824;BME280;11074;48.596;9.238;2024-01-15T08:18:46;97056.59;;;1.34;73.72
21824;BME280;11074;48.596;9.238;2024-01-15T08:21:12;97054.41;;;1.31;73.40
21824;BME280;11074;48.596;9.238;2024-01-15T08:23:37;97046.72;;;1.47;73.52
21824;BME280;11074;48.596;9.238;2024-01-15T08:26:02;97048.06;;;1.38;73.52
21824;BME280;11074;48.596;9.238;2024-01-15T08:28:28;97042.63;;;1.51;72.66
21824;BME280;11074;48.596;9.238;2024-01-15T08:30:53;97051.03;;;1.42;73.15
21824;BME280;11074;48.596;9.238;2024-01-15T08:33:18;97048.19;;;1.43;72.99
21824;BME280;11074;48.596;9.238;2024-01-15T08:35:43;97055.06;;;1.44;72.78
21824;BME280;11074;48.596;9.238;2024-01-15T08:38:09;97049.50;;;1.52;72.33
21824;BME280;11074;48.596;9.238;2024-01-15T08:40:34;97047.28;;;1.49;72.11
21824;BME280;11074;48.596;9.238;2024-01-15T08:42:59;97061.28;;;1.50;72.30
21824;BME280;11074;48.596;9.238;2024-01-15T08:45:24;97051.41;;;1.45;72.19
21824;BME280;11074;48.596;9.238;2024-01-15T08:47:50;97051.97;;;1.47;72.21
21824;BME280;11074;48.596;9.238;2024-01-15T08:50:15;97060.94;;;1.46;72.34
21824;BME280;11074;48.596;9.238;2024-01-15T08:52:40;97061.28;;;1.50;71.94
21824;BME280;11074;48.596;9.238;2024-01-15T08:55:06;97060.75;;;1.59;71.55
21824;BME280;11074;48.596;9.238;2024-01-15T08:57:32;97058.91;;;1.60;70.42
21824;BME280;11074;48.596;9.238;2024-01-15T08:59:58;97069.28;;;1.73;71.23
21824;BME280;11074;48.596;9.238;2024-01-15T09:02:24;97073.00;;;1.65;70.52
21824;BME280;11074;48.596;9.238;2024-01-15T09:04:49;97059.53;;;1.73;70.40
21824;BME280;11074;48.596;9.238;2024-01-15T09:07:14;97063.34;;;1.77;70.19
21824;BME280;11074;48.596;9.238;2024-01-15T09:09:40;97066.56;;;1.79;70.52
21824;BME280;11074;48.596;9.238;2024-01-15T09:12:07;97070.97;;;1.97;69.51
21824;BME280;11074;48.596;9.238;2024-01-15T09:14:32;97076.69;;;1.94;68.85
21824;BME280;11074;48.596;9.238;2024-01-15T09:16:59;97069.69;;;2.00;69.63
21824;BME280;11074;48.596;9.238;2024-01-15T09:19:24;97060.34;;;2.04;68.51
21824;BME280;11074;48.596;9.238;2024-01-15T09:21:49;97054.13;;;1.98;69.49
21824;BME280;11074;48.596;9.238;2024-01-15T09:24:15;97049.53;;;1.94;69.16
21824;BME280;11074;48.596;9.238;2024-01-15T09:26:40;97047.59;;;2.01;68.53
21824;BME280;11074;48.596;9.238;2024-01-15T09:29:06;97048.09;;;2.09;69.05
21824;BME280;11074;48.596;9.238;2024-01-15T09:31:31;97047.19;;;2.15;68.26
21824;BME280;11074;48.596;9.238;2024-01-15T09:33:56;97036.06;;;2.13;67.72
21824;BME280;11074;48.596;9.238;2024-01-15T09:36:23;97027.22;;;2.08;67.83
21824;BME280;11074;48.596;9.238;2024-01-15T09:38:49;97034.03;;;2.15;67.73
21824;BME280;11074;48.596;9.238;2024-01-15T09:41:14;97032.75;;;2.18;67.32
21824;BME280;11074;48.596;9.238;2024-01-15T09:43:40;97035.28;;;2.24;67.16
21824;BME280;11074;48.596;9.238;2024-01-15T09:46:05;97020.28;;;2.25;67.64
21824;BME280;11074;48.596;9.238;2024-01-15T09:48:31;97024.03;;;2.17;67.87
21824;BME280;11074;48.596;9.238;2024-01-15T09:51:01;97015.00;;;2.25;66.99
21824;BME280;11074;48.596;9.238;2024-01-15T09:53:26;97002.84;;;2.35;67.06
21824;BME280;11074;48.596;9.238;2024-01-15T09:55:52;97015.13;;;2.41;66.64
21824;BME280;11074;48.596;9.238;2024-01-15T09:58:18;97003.78;;;2.41;66.72
21824;BME280;11074;48.596;9.238;2024-01-15T10:00:44;96999.66;;;2.33;66.73
21824;BME280;11074;48.596;9.238;2024-01-15T10:03:10;96998.28;;;2.31;66.59
21824;BME280;11074;48.596;9.238;2024-01-15T10:05:37;97003.66;;;2.36;66.07
21824;BME280;11074;48.596;9.238;2024-01-15T10:08:02;96995.41;;;2.44;66.41
21824;BME280;11074;48.596;9.238;2024-01-15T10:10:29;96997.47;;;2.42;66.39
21824;BME280;11074;48.596;9.238;2024-01-15T10:12:55;96994.34;;;2.45;65.97
21824;BME280;11074;48.596;9.238;2024-01-15T10:15:23;96996.69;;;2.41;66.10
21824;BME280;11074;48.596;9.238;2024-01-15T10:17:49;96997.94;;;2.39;66.42
21824;BME280;11074;48.596;9.238;2024-01-15T10:20:14;96988.75;;;2.41;66.29
21824;BME280;11074;48.596;9.238;2024-01-15T10:22:41;96979.03;;;2.42;65.97
21824;BME280;11074;48.596;9.238;2024-01-15T10:25:10;96982.53;;;2.47;65.63
21824;BME280;11074;48.596;9.238;2024-01-15T10:27:35;96981.06;;;2.40;66.03
21824;BME280;11074;48.596;9.238;2024-01-15T10:30:00;96983.50;;;2.41;65.40
21824;BME280;11074;48.596;9.238;2024-01-15T10:32:27;96969.50;;;2.53;65.83
21824;BME280;11074;48.596;9.238;2024-01-15T10:34:52;96971.53;;;2.51;65.91
21824;BME280;11074;48.596;9.238;2024-01-15T10:37:18;96968.00;;;2.45;65.69
21824;BME280;11074;48.596;9.238;2024-01-15T10:39:43;96969.81;;;2.56;65.94
21824;BME280;11074;48.596;9.238;2024-01-15T10:42:09;96971.09;;;2.54;65.96
21824;BME280;11074;48.596;9.238;2024-01-15T10:44:35;96972.47;;;2.44;66.28
21824;BME280;11074;48.596;9.238;2024-01-15T10:47:00;96978.44;;;2.52;66.09
21824;BME280;11074;48.596;9.238;2024-01-15T10:49:26;96982.91;;;2.51;65.85
21824;BME280;11074;48.596;9.238;2024-01-15T10:51:53;96974.28;;;2.56;65.83
21824;BME280;11074;48.596;9.238;2024-01-15T10:54:19;96977.16;;;2.66;65.68
21824;BME280;11074;48.596;9.238;2024-01-15T10:56:46;96972.91;;;2.65;66.19
21824;BME280;11074;48.596;9.238;2024-01-15T10:59:13;96965.09;;;2.70;65.03
21824;BME280;11074;48.596;9.238;2024-01-15T11:01:38;96964.31;;;2.69;64.90
21824;BME280;11074;48.596;9.238;2024-01-15T11:04:04;96960.53;;;2.65;65.77
21824;BME280;11074;48.596;9.238;2024-01-15T11:06:42;96962.56;;;2.75;65.61
21824;BME280;11074;48.596;9.238;2024-01-15T11:09:08;96971.19;;;2.82;65.40
21824;BME280;11074;48.596;9.238;2024-01-15T11:11:35;96976.72;;;2.69;65.50
21824;BME280;11074;48.596;9.238;2024-01-15T11:14:01;96978.31;;;2.70;65.81
21824;BME280;11074;48.596;9.238;2024-01-15T11:16:53;96960.19;;;2.73;66.19
21824;BME280;11074;48.596;9.238;2024-01-15T11:19:18;96973.72;;;2.65;67.19
21824;BME280;11074;48.596;9.238;2024-01-15T11:21:44;96968.81;;;2.69;66.63
21824;BME280;11074;48.596;9.238;2024-01-15T11:24:09;96959.97;;;2.63;66.71
21824;BME280;11074;48.596;9.238;2024-01-15T11:26:37;96958.81;;;2.71;66.95
21824;BME280;11074;48.596;9.238;2024-01-15T11:29:10;96947.44;;;2.70;67.43
21824;BME280;11074;48.596;9.238;2024-01-15T11:32:04;96940.66;;;2.74;67.73
21824;BME280;11074;48.596;9.238;2024-01-15T11:34:50;96933.91;;;2.67;67.68
21824;BME280;11074;48.596;9.238;2024-01-15T11:37:16;96929.44;;;2.67;68.50
21824;BME280;11074;48.596;9.238;2024-01-15T11:39:42;96933.00;;;2.73;68.57
21824;BME280;11074;48.596;9.238;2024-01-15T11:42:10;96920.72;;;2.67;68.97
21824;BME280;11074;48.596;9.238;2024-01-15T11:44:36;96919.13;;;2.66;68.55
21824;BME280;11074;48.596;9.238;2024-01-15T11:50:03;96925.44;;;2.65;69.31
21824;BME280;11074;48.596;9.238;2024-01-15T11:52:35;96908.59;;;2.66;69.23
21824;BME280;11074;48.596;9.238;2024-01-15T11:55:22;96930.59;;;2.71;69.38
21824;BME280;11074;48.596;9.238;2024-01-15T11:57:52;96936.53;;;2.78;69.57
21824;BME280;11074;48.596;9.238;2024-01-15T12:00:19;96928.63;;;2.67;70.53
21824;BME280;11074;48.596;9.238;2024-01-15T12:02:46;96937.72;;;2.71;71.05
21824;BME280;11074;48.596;9.238;2024-01-15T12:05:19;96947.00;;;2.73;71.72
21824;BME280;11074;48.596;9.238;2024-01-15T12:07:47;96956.06;;;2.54;72.78
21824;BME280;11074;48.596;9.238;2024-01-15T12:10:17;96957.22;;;2.58;73.37
21824;BME280;11074;48.596;9.238;2024-01-15T12:13:13;96952.16;;;2.68;73.96
21824;BME280;11074;48.596;9.238;2024-01-15T12:15:39;96964.44;;;2.63;74.23
21824;BME280;11074;48.596;9.238;2024-01-15T12:18:08;96945.28;;;2.67;74.57
21824;BME280;11074;48.596;9.238;2024-01-15T12:20:34;96948.25;;;2.47;76.33
21824;BME280;11074;48.596;9.238;2024-01-15T12:23:00;96944.84;;;2.47;77.42
21824;BME280;11074;48.596;9.238;2024-01-15T12:25:26;96957.56;;;2.38;77.29
21824;BME280;11074;48.596;9.238;2024-01-15T12:27:53;96947.38;;;2.42;78.04
21824;BME280;11074;48.596;9.238;2024-01-15T12:30:18;96948.50;;;2.34;78.10
21824;BME280;11074;48.596;9.238;2024-01-15T12:32:44;96951.81;;;2.53;78.63
21824;BME280;11074;48.596;9.238;2024-01-15T12:35:13;96935.56;;;2.44;77.17
21824;BME280;11074;48.596;9.238;2024-01-15T12:37:42;96934.75;;;2.44;78.38
21824;BME280;11074;48.596;9.238;2024-01-15T12:40:09;96940.69;;;2.51;77.64
21824;BME280;11074;48.596;9.238;2024-01-15T12:42:36;96956.56;;;2.39;79.86
21824;BME280;11074;48.596;9.238;2024-01-15T12:45:03;96950.69;;;2.37;80.11
21824;BME280;11074;48.596;9.238;2024-01-15T12:47:30;96952.75;;;2.35;81.79
21824;BME280;11074;48.596;9.238;2024-01-15T12:49:57;96960.09;;;2.33;82.01
21824;BME280;11074;48.596;9.238;2024-01-15T12:52:22;96958.38;;;2.27;83.03
21824;BME280;11074;48.596;9.238;2024-01-15T12:54:49;96954.47;;;2.18;85.02
21824;BME280;11074;48.596;9.238;2024-01-15T12:57:15;96965.13;;;2.12;84.90
21824;BME280;11074;48.596;9.238;2024-01-15T12:59:40;96974.66;;;2.13;85.40
21824;BME280;11074;48.596;9.238;2024-01-15T13:02:05;96952.63;;;1.96;86.34
21824;BME280;11074;48.596;9.238;2024-01-15T13:04:31;96967.09;;;2.05;87.06
21824;BME280;11074;48.596;9.238;2024-01-15T13:06:56;96963.63;;;2.16;86.70